Impacts METAR Board INFO
IDs:

KPHL - Philadelphia Intl, PA, US

Updated at: 0626 UTC 14 Dec 2017
Potential Impact None Slight Moderate High
Time13/18Z 13/19Z 13/20Z 13/21Z 13/22Z 13/23Z 14/00Z 14/01Z 14/02Z 14/03Z 14/04Z 14/05Z 14/06Z
VIS10 10 10 10 10 10 10 10 10 1.5 0.75 6 10
CIG-- -- -- -- -- -- 250 180 60 19 10 25 60
CoverFEWFEWFEWFEWSCTFEWBKNBKNOVCOVCOVCOVCOVC
FltCatVFRVFRVFRVFRVFRVFRVFRVFRVFRIFRLIFRMVFRVFR
WX-------------------SN-SN BR-SN BR--
WDir270280290270260260270250220200200140150
WSpd23 19 19 16 15 11 11 10 6 12 7 5 4
WGst30 27 28 27 -- -- -- -- -- -- -- -- --
Raw hourly METARs
KPHL 131754Z 27023G30KT 10SM FEW055 FEW250 M01/M16 A2970 RMK AO2 PK WND 31031/1730 SLP056 T10061156 11006 21056 55002
KPHL 131854Z 28019G27KT 10SM FEW055 FEW250 M01/M16 A2970 RMK AO2 PK WND 26031/1832 SLP058 T10061156
KPHL 131954Z 29019G28KT 10SM FEW055 FEW250 M01/M16 A2972 RMK AO2 PK WND 27028/1949 SLP062 T10061156
KPHL 132054Z 27016G27KT 10SM FEW055 FEW250 M01/M16 A2972 RMK AO2 PK WND 28027/2001 SLP064 T10111161 51008
KPHL 132154Z 26015KT 10SM FEW180 SCT250 M02/M16 A2973 RMK AO2 SLP068 T10171161
KPHL 132254Z 26011KT 10SM FEW250 M02/M16 A2975 RMK AO2 SLP072 T10221161
KPHL 132354Z 27011KT 10SM FEW100 BKN250 M02/M16 A2974 RMK AO2 SLP072 T10171156 11006 21022 51008
KPHL 140054Z 25010KT 10SM BKN180 M02/M15 A2972 RMK AO2 SLP063 T10171150
KPHL 140154Z 22006KT 10SM BKN060 BKN090 OVC150 M01/M13 A2970 RMK AO2 SLP058 T10111133
KPHL 140301Z 20012KT 1 1/2SM -SN OVC019 M03/M07 A2971 RMK AO2 P0000 T10281067
KPHL 140354Z 20007KT 3/4SM R09R/4000VP6000FT -SN BR SCT005 OVC010 M03/M04 A2971 RMK AO2 SLP060 P0003 T10281044
KPHL 140502Z 14005KT 6SM -SN BR SCT007 BKN025 OVC044 M03/M04 A2965 RMK AO2 P0000 T10281044
KPHL 140601Z 15004KT 10SM SCT009 BKN060 OVC075 M02/M04 A2962 RMK AO2 SNE01 P0000 T10221039